Terminal Aerodrome Forecast
Issued by NWS Pocatello, ID

Home | Current Version | Previous Version | Text Only | Print | Product List | Glossary On
Versions: 1 2 3 4 5 6 7 8 9 10 11 12 13 14 15 16 17 18 19 20 21 22
000
FTUS45 KPIH 230500
TAFPIH
TAF
KPIH 230528Z 2306/2406 23023G31KT P6SM VCSH OVC010
      TEMPO 2306/2308 5SM -SN OVC008
     FM231000 23015KT P6SM SCT010 BKN060
     FM231400 23015KT P6SM OVC008
     FM232000 24016G25KT P6SM SCT008 OVC015=

USA.gov is the U.S. government's official web portal to all federal, state and local government web resources and services.